Monday, June 25, 2018, 9:39 AM EDT
Back to Local

KSNC, Chester, Chester Airport

Location: Chester, CT, United States Lat: 41.384
Local Time: 9:39 AM EDT (13:39 GMT) Lon: -72.506
Time Zone: US/Eastern Elev: 416 ft

Show me the last for .
Show Decoded

2018-06-25 09:15 METAR KSNC 251315Z AUTO 33010G16KT 10SM BKN023 BKN030 BKN110 23/16 A2993 RMK AO2
                 =
2018-06-25 08:55 METAR KSNC 251255Z AUTO 32009KT 10SM FEW024 22/16 A2992 RMK AO2 =
2018-06-25 08:35 METAR KSNC 251235Z AUTO 33010KT 10SM CLR 22/16 A2991 RMK AO2 =
2018-06-25 08:15 METAR KSNC 251215Z AUTO 32009KT 10SM CLR 21/17 A2990 RMK AO2 =
2018-06-25 07:55 METAR KSNC 251155Z AUTO 33008G15KT 10SM CLR 21/17 A2990 RMK AO2 =
2018-06-25 07:35 METAR KSNC 251135Z AUTO 32008G15KT 10SM CLR 20/17 A2989 RMK AO2 =
2018-06-25 07:15 METAR KSNC 251115Z AUTO 34008KT 10SM CLR 19/17 A2988 RMK AO2 =
2018-06-25 06:55 METAR KSNC 251055Z AUTO 33010KT 10SM CLR 19/17 A2987 RMK AO2 =
2018-06-25 06:35 METAR KSNC 251035Z AUTO 33010KT 10SM CLR 18/17 A2987 RMK AO2 =
2018-06-25 06:15 METAR KSNC 251015Z AUTO 34011G17KT 10SM FEW006 18/17 A2986 RMK AO2 =
2018-06-25 05:55 METAR KSNC 250955Z AUTO 34011G18KT 10SM SCT007 SCT012 18/17 A2985 RMK AO2 =
2018-06-25 05:35 METAR KSNC 250935Z AUTO 34007G14KT 10SM SCT008 SCT011 18/17 A2983 RMK AO2 =
2018-06-25 05:15 METAR KSNC 250915Z AUTO 34007KT 10SM SCT009 18/17 A2983 RMK AO2 =
2018-06-25 04:55 METAR KSNC 250855Z AUTO 36008KT 10SM FEW028 18/17 A2981 RMK AO2 =
2018-06-25 04:35 METAR KSNC 250835Z AUTO 34009G16KT 10SM SCT007 SCT011 BKN024 18/18 A2981 RMK AO2
                 =
2018-06-25 04:15 METAR KSNC 250815Z AUTO 35010G16KT 10SM BKN007 BKN010 OVC017 18/18 A2982 RMK AO2
                 =
2018-06-25 03:55 METAR KSNC 250755Z AUTO 34012KT 8SM SCT007 OVC015 19/18 A2981 RMK AO2 =
2018-06-25 03:35 METAR KSNC 250735Z AUTO 33011G17KT 10SM SCT007 OVC014 19/19 A2981 RMK AO2 =
2018-06-25 03:15 METAR KSNC 250715Z AUTO 32009KT 10SM SCT007 BKN011 BKN017 19/19 A2980 RMK AO2 =
2018-06-25 02:55 METAR KSNC 250655Z AUTO 31007KT 10SM CLR 19/19 A2980 RMK AO2 =
2018-06-25 02:35 METAR KSNC 250635Z AUTO 31006KT 7SM BKN001 BKN014 19/19 A2980 RMK AO2 =
2018-06-25 02:15 METAR KSNC 250615Z AUTO 30004KT 1SM BR OVC001 19/19 A2979 RMK AO2 =
2018-06-25 01:55 METAR KSNC 250555Z AUTO 29004KT 1 1/4SM BR OVC001 19/19 A2979 RMK AO2 =
2018-06-25 01:35 METAR KSNC 250535Z AUTO 20003KT 1/2SM FG OVC001 19/19 A2979 RMK AO2 =
2018-06-25 01:15 METAR KSNC 250515Z AUTO 00000KT 1/4SM FG OVC001 19/19 A2978 RMK AO2 =
2018-06-25 00:55 METAR KSNC 250455Z AUTO 00000KT 1/4SM FG OVC001 19/19 A2979 RMK AO2 =
2018-06-25 00:35 METAR KSNC 250435Z AUTO 00000KT 1/2SM BR OVC001 19/19 A2979 RMK AO2 =
2018-06-25 00:15 METAR KSNC 250415Z AUTO 00000KT 3/4SM BR OVC001 20/20 A2980 RMK AO2 =
2018-06-24 23:55 METAR KSNC 250355Z AUTO 24003KT 1 1/2SM BR OVC001 20/20 A2981 RMK AO2 =
2018-06-24 23:35 METAR KSNC 250335Z AUTO 00000KT 7SM BKN002 BKN110 20/20 A2981 RMK AO2 =
2018-06-24 23:15 METAR KSNC 250315Z AUTO 29003KT 8SM SCT110 20/20 A2981 RMK AO2 =
2018-06-24 22:55 METAR KSNC 250255Z AUTO 24005KT 8SM FEW002 FEW120 20/20 A2981 RMK AO2 =
2018-06-24 22:35 METAR KSNC 250235Z AUTO 21005KT 8SM FEW002 SCT039 20/20 A2980 RMK AO2 =
2018-06-24 22:15 METAR KSNC 250215Z AUTO 20005KT 10SM SCT002 SCT005 BKN040 20/20 A2981 RMK AO2 =
2018-06-24 21:55 METAR KSNC 250155Z AUTO 4.54166705KT 6SM BR OVC001 21/21 A2982 RMK AO2 =
2018-06-24 21:35 METAR KSNC 250135Z AUTO 15006KT 3SM -RA OVC001 21/21 A2979 RMK AO2 =
2018-06-24 21:15 METAR KSNC 250115Z AUTO 00000KT 1/2SM FG OVC001 21/21 A2980 RMK AO2 =
2018-06-24 20:55 METAR KSNC 250055Z AUTO 00000KT 1 1/2SM BR OVC001 21/21 A2980 RMK AO2 =
2018-06-24 20:35 METAR KSNC 250035Z AUTO 00000KT 1SM -DZ BKN002 BKN024 OVC048 21/21 A2981 RMK AO2
                 =
2018-06-24 20:15 METAR KSNC 250015Z AUTO 00000KT 2SM -RA FEW003 BKN022 OVC046 21/21 A2982 RMK AO2
                 =
2018-06-24 19:55 METAR KSNC 242355Z AUTO 00000KT 2SM RA BKN002 BKN013 OVC022 21/21 A2982 RMK AO2
                 =
2018-06-24 19:35 METAR KSNC 242335Z AUTO 27006G12KT 1SM +RA BKN003 OVC011 22/21 A2982 RMK AO2 =
2018-06-24 19:15 METAR KSNC 242315Z AUTO 23004KT 6SM BR SCT010 SCT021 BKN034 23/21 A2981 RMK AO2
                 =
2018-06-24 18:55 METAR KSNC 242255Z AUTO 17004KT 9SM BKN075 BKN085 23/21 A2980 RMK AO2 =
2018-06-24 18:35 METAR KSNC 242235Z AUTO 18006KT 9SM FEW070 BKN090 23/21 A2980 RMK AO2 =
2018-06-24 18:15 METAR KSNC 242215Z AUTO 18006KT 9SM SCT080 BKN100 23/21 A2980 RMK AO2 =
2018-06-24 17:55 METAR KSNC 242155Z AUTO 19006KT 9SM FEW042 SCT085 23/21 A2980 RMK AO2 =
2018-06-24 17:35 METAR KSNC 242135Z AUTO 20006KT 8SM FEW010 FEW039 SCT090 23/20 A2980 RMK AO2 =
2018-06-24 17:15 METAR KSNC 242115Z AUTO 19006KT 8SM FEW010 SCT075 SCT090 23/20 A2980 RMK AO2 =
2018-06-24 16:55 METAR KSNC 242055Z AUTO 18007KT 8SM BKN011 BKN095 BKN120 23/20 A2980 RMK AO2 =
2018-06-24 16:35 METAR KSNC 242035Z AUTO 17010KT 9SM BKN012 BKN047 BKN070 24/20 A2981 RMK AO2 =
2018-06-24 16:15 METAR KSNC 242015Z AUTO 17009KT 10SM SCT014 SCT033 BKN110 25/20 A2981 RMK AO2 =
2018-06-24 15:55 METAR KSNC 241955Z AUTO 17009KT 10SM BKN015 BKN033 BKN075 27/20 A2981 RMK AO2 =
2018-06-24 15:35 METAR KSNC 241935Z AUTO 16011KT 10SM BKN015 BKN030 BKN075 26/20 A2981 RMK AO2 =
2018-06-24 15:15 METAR KSNC 241915Z AUTO VRB06G12KT 10SM OVC015 25/20 A2982 RMK AO2 =
2018-06-24 14:55 METAR KSNC 241855Z AUTO 18007KT 10SM OVC015 25/20 A2983 RMK AO2 =
2018-06-24 14:35 METAR KSNC 241835Z AUTO 21008KT 10SM OVC013 25/20 A2983 RMK AO2 =
2018-06-24 14:15 METAR KSNC 241815Z AUTO 17008KT 9SM OVC012 24/19 A2983 RMK AO2 =
2018-06-24 13:55 METAR KSNC 241755Z AUTO 17009KT 8SM OVC010 23/19 A2983 RMK AO2 =
2018-06-24 13:35 METAR KSNC 241735Z AUTO VRB06KT 8SM BKN008 OVC011 22/19 A2984 RMK AO2 =
2018-06-24 13:15 METAR KSNC 241715Z AUTO 17006KT 6SM HZ 22/19 A2984 RMK AO2 =
2018-06-24 12:55 METAR KSNC 241655Z AUTO 20004KT 5SM HZ OVC006 21/19 A2985 RMK AO2 =
2018-06-24 12:35 METAR KSNC 241635Z AUTO 23006KT 6SM HZ OVC006 22/19 A2985 RMK AO2 =
2018-06-24 12:15 METAR KSNC 241615Z AUTO VRB05KT 5SM BR OVC005 21/19 A2986 RMK AO2 =
2018-06-24 11:55 METAR KSNC 241555Z AUTO 20007KT 4SM BR OVC005 21/19 A2986 RMK AO2 =
2018-06-24 11:35 METAR KSNC 241535Z AUTO VRB05KT 6SM BR OVC005 21/19 A2985 RMK AO2 =
2018-06-24 11:15 METAR KSNC 241515Z AUTO 21007KT 5SM HZ OVC005 21/19 A2986 RMK AO2 =
2018-06-24 10:55 METAR KSNC 241455Z AUTO 21004KT 4SM BR OVC003 21/19 A2985 RMK AO2 =
2018-06-24 10:35 METAR KSNC 241435Z AUTO 18006KT 1SM BR OVC002 20/18 A2985 RMK AO2 =
2018-06-24 10:15 METAR KSNC 241415Z AUTO 00000KT 3/4SM BR OVC001 19/18 A2986 RMK AO2 =
2018-06-24 09:55 METAR KSNC 241355Z AUTO 21005KT 3/4SM BR OVC001 19/18 A2986 RMK AO2 =

Support USWX by starting your Amazon purchase here.